• Join FlightAware (Why Join?)
  • Login
  • US Flag 
05:38AM EDT


 

Airport Tracker/Info


-or-


 

Live Flight TrackerFlight Track Log ✈ UAL4236 ✈ 12-Apr-2013 ✈ KIND - KIAH

Flight Track Log - Related Links

Times and Time Zones

All times are in EDT time to prevent confusion due to time zone crossing. See the UAL4236 flight status page for this flight to view local times or setup timezone preferences in your user account.

Time Position Orientation Groundspeed Altitude Reporting Facility
EDT Latitude Longitude Course Direction KTS MPH feet Rate Location/Type
06:52AM 39.7000 -86.3000 201° Southwest 141 162 1,400  Level Indianapolis TRACON
06:53AM 39.6667 -86.3500 229° Southwest 178 205 3,300 1,500 Climbing Indianapolis TRACON
06:54AM 39.6000 -86.3500 180° South 261 300 4,800 1,800 Climbing Indianapolis TRACON
06:55AM 39.4616 -86.4196 204° Southwest  Level FlightAware Approximate
06:55AM 39.5603 -86.3503 180° South 225 259 6,300  Level Indianapolis Center
06:56AM 39.3767 -86.4681 204° Southwest  Level FlightAware Approximate
06:56AM 39.5022 -86.3844 204° Southwest 227 261 8,400  Level Indianapolis Center
06:57AM 39.2907 -86.5130 201° Southwest  Level FlightAware Approximate
06:57AM 39.4431 -86.4225 206° Southwest 232 267 10,500  Level Indianapolis Center
06:58AM 39.3861 -86.4706 213° Southwest 237 273 11,600 1,020 Climbing Indianapolis Center
06:59AM 39.3242 -86.5303 217° Southwest 257 296 12,600 960 Climbing Indianapolis Center
07:00AM 39.2553 -86.5928 215° Southwest 281 323 13,600 900 Climbing Indianapolis Center
07:01AM 39.1828 -86.6589 215° Southwest 302 348 14,500 900 Climbing Indianapolis Center
07:02AM 39.1081 -86.7253 215° Southwest 315 362 15,500 900 Climbing Indianapolis Center
07:03AM 39.0328 -86.7933 215° Southwest 325 374 16,400 900 Climbing Indianapolis Center
07:04AM 38.9569 -86.8611 215° Southwest 330 380 17,400 1,020 Climbing Indianapolis Center
07:05AM 38.8800 -86.9292 215° Southwest 336 387 18,500 1,020 Climbing Indianapolis Center
07:06AM 38.8036 -86.9983 215° Southwest 336 387 19,500 900 Climbing Indianapolis Center
07:07AM 38.7253 -87.0669 214° Southwest 339 390 20,400 900 Climbing Indianapolis Center
07:08AM 38.6472 -87.1356 214° Southwest 341 392 21,400 900 Climbing Indianapolis Center
07:09AM 38.5678 -87.2047 214° Southwest 345 397 22,300 960 Climbing Indianapolis Center
07:10AM 38.4733 -87.2878 215° Southwest 346 398 23,400 1,020 Climbing Indianapolis Center
07:11AM 38.3944 -87.3564 214° Southwest 346 398 24,400 900 Climbing Indianapolis Center
07:12AM 38.3161 -87.4250 215° Southwest 345 397 25,300 840 Climbing Indianapolis Center
07:13AM 38.2386 -87.4944 215° Southwest 342 394 26,200 900 Climbing Indianapolis Center
07:14AM 38.1636 -87.5611 215° Southwest 334 384 27,200 900 Climbing Indianapolis Center
07:15AM 38.0900 -87.6242 214° Southwest 324 373 28,100 840 Climbing Indianapolis Center
07:16AM 38.0172 -87.6844 213° Southwest 315 362 29,000 840 Climbing Indianapolis Center
07:17AM 37.9444 -87.7433 213° Southwest 310 357 29,900 900 Climbing Indianapolis Center
07:18AM 37.8747 -87.8025 214° Southwest 304 350 30,900 900 Climbing Indianapolis Center
07:19AM 37.8064 -87.8656 216° Southwest 303 349 31,800 900 Climbing Indianapolis Center
07:20AM 37.7344 -87.9319 216° Southwest 298 343 32,800 960 Climbing Indianapolis Center
07:21AM 37.6667 -87.9939 216° Southwest 297 342 33,800 900 Climbing Indianapolis Center
07:22AM 37.5989 -88.0550 216° Southwest 295 339 34,700 840 Climbing Indianapolis Center
07:23AM 37.5356 -88.1144 217° Southwest 286 329 35,600 600 Climbing Indianapolis Center
07:24AM 37.4711 -88.1711 215° Southwest 280 322 36,000 180 Climbing Indianapolis Center
07:25AM 37.4044 -88.2322 216° Southwest 289 333 36,000  Level Indianapolis Center
07:26AM 37.3333 -88.2956 215° Southwest 306 352 36,000  Level Indianapolis Center
07:27AM 37.2597 -88.3736 220° Southwest 323 372 36,000  Level Memphis Center
07:28AM 37.1836 -88.4406 215° Southwest 329 379 36,000  Level Memphis Center
07:29AM 37.1056 -88.5103 215° Southwest 340 391 36,000  Level Memphis Center
07:30AM 37.0294 -88.5769 215° Southwest 345 397 36,000  Level Memphis Center
07:31AM 36.9533 -88.6436 215° Southwest 345 397 36,000  Level Memphis Center
07:32AM 36.8792 -88.7075 215° Southwest 340 391 36,000  Level Memphis Center
07:33AM 36.8031 -88.7736 215° Southwest 340 391 36,000  Level Memphis Center
07:34AM 36.7267 -88.8400 215° Southwest 340 391 36,000  Level Memphis Center
07:35AM 36.6503 -88.9086 216° Southwest 340 391 36,000  Level Memphis Center
07:36AM 36.5739 -88.9744 215° Southwest 340 391 36,000  Level Memphis Center
07:37AM 36.4975 -89.0406 215° Southwest 340 391 36,000  Level Memphis Center
07:38AM 36.4108 -89.1114 213° Southwest 340 391 36,000  Level Memphis Center
07:39AM 36.3322 -89.1822 216° Southwest 346 398 36,000  Level Memphis Center
07:40AM 36.2494 -89.2478 213° Southwest 352 405 36,000  Level Memphis Center
07:41AM 36.1731 -89.3183 217° Southwest 357 411 36,000  Level Memphis Center
07:42AM 36.0944 -89.3886 216° Southwest 351 404 36,000  Level Memphis Center
07:43AM 36.0156 -89.4561 215° Southwest 351 404 36,000  Level Memphis Center
07:44AM 35.9369 -89.5239 215° Southwest 351 404 36,000  Level Memphis Center
07:45AM 35.8581 -89.5911 215° Southwest 351 404 36,000  Level Memphis Center
07:46AM 35.7792 -89.6611 216° Southwest 351 404 36,000  Level Memphis Center
07:47AM 35.7003 -89.7281 215° Southwest 351 404 36,000  Level Memphis Center
07:48AM 35.6339 -89.7900 217° Southwest 343 395 36,000  Level Memphis Center
07:49AM 35.5528 -89.8569 214° Southwest 348 400 36,000  Level Memphis Center
07:50AM 35.4675 -89.9314 215° Southwest 348 400 36,000  Level Memphis Center
07:51AM 35.3844 -90.0006 214° Southwest 354 407 36,000  Level Memphis Center
07:52AM 35.3053 -90.0669 214° Southwest 354 407 36,000  Level Memphis Center
07:53AM 35.2261 -90.1383 216° Southwest 352 405 36,000  Level Memphis Center
07:54AM 35.1450 -90.2022 213° Southwest 352 405 36,000  Level Memphis Center
07:55AM 35.0658 -90.2708 215° Southwest 352 405 36,000  Level Memphis Center
07:56AM 34.9864 -90.3394 215° Southwest 352 405 36,000  Level Memphis Center
07:57AM 34.9050 -90.4053 214° Southwest 352 405 36,000  Level Memphis Center
07:58AM 34.8258 -90.4708 214° Southwest 352 405 36,000  Level Memphis Center
07:59AM 34.7464 -90.5367 214° Southwest 347 399 36,000  Level Memphis Center
08:00AM 34.6669 -90.6019 214° Southwest 352 405 36,000  Level Memphis Center
08:01AM 34.5875 -90.6650 213° Southwest 352 405 36,000  Level Memphis Center
08:02AM 34.5081 -90.7303 214° Southwest 352 405 36,000  Level Memphis Center
08:03AM 34.4267 -90.7953 213° Southwest 352 405 36,000  Level Memphis Center
08:04AM 34.3533 -90.8503 212° Southwest 352 405 36,000  Level Memphis Center
08:05AM 34.2739 -90.9153 214° Southwest 352 405 36,000  Level Memphis Center
08:06AM 34.1919 -90.9775 212° Southwest 352 405 36,000  Level Memphis Center
08:07AM 34.1103 -91.0419 213° Southwest 352 405 36,000  Level Memphis Center
08:08AM 34.0286 -91.1092 214° Southwest 352 405 36,000  Level Memphis Center
08:09AM 33.9489 -91.1711 213° Southwest 352 405 36,000  Level Memphis Center
08:10AM 33.8650 -91.2353 212° Southwest 352 405 36,000  Level Memphis Center
08:12AM 33.7161 -91.3533 213° Southwest 353 406 36,000  Level Fort Worth Center
08:13AM 33.6458 -91.4131 215° Southwest 353 406 36,000  Level Fort Worth Center
08:14AM 33.5592 -91.4739 210° Southwest 353 406 36,000  Level Fort Worth Center
08:15AM 33.4808 -91.5414 216° Southwest 353 406 36,000  Level Fort Worth Center
08:16AM 33.3961 -91.6042 212° Southwest 353 406 36,000  Level Fort Worth Center
08:17AM 33.3114 -91.6669 212° Southwest 358 412 36,000  Level Fort Worth Center
08:18AM 33.2308 -91.7294 213° Southwest 358 412 36,000  Level Fort Worth Center
08:19AM 33.1461 -91.7942 213° Southwest 358 412 36,000  Level Fort Worth Center
08:20AM 33.0653 -91.8564 213° Southwest 358 412 36,000  Level Fort Worth Center
08:21AM 32.9744 -91.9214 211° Southwest 358 412 36,000  Level Fort Worth Center
08:22AM 32.8956 -91.9833 213° Southwest 358 412 36,000  Level Fort Worth Center
08:23AM 32.8128 -92.0475 213° Southwest 358 412 36,000  Level Fort Worth Center
08:24AM 32.7258 -92.1094 211° Southwest 358 412 36,000  Level Fort Worth Center
08:26AM 32.5253 -92.2592 212° Southwest 360 414 36,000  Level Houston Center
08:27AM 32.4417 -92.3225 213° Southwest 359 413 36,000  Level Houston Center
08:28AM 32.3594 -92.3892 214° Southwest 359 413 36,000  Level Houston Center
08:29AM 32.2742 -92.4528 212° Southwest 363 418 36,000  Level Houston Center
08:30AM 32.1717 -92.5267 211° Southwest 363 418 36,000  Level Houston Center
08:31AM 32.0867 -92.5919 213° Southwest 365 420 36,000  Level Houston Center
08:32AM 31.9994 -92.6575 213° Southwest 372 428 36,000  Level Houston Center
08:33AM 31.9172 -92.7297 217° Southwest 371 427 36,000  Level Houston Center
08:34AM 31.8389 -92.8072 220° Southwest 369 425 36,000  Level Houston Center
08:35AM 31.7608 -92.8822 219° Southwest 365 420 36,000 -60 Level Houston Center
08:36AM 31.6828 -92.9583 220° Southwest 367 422 35,900  Descending Houston Center
08:37AM 31.6050 -93.0333 219° Southwest 364 419 36,000  Climbing Houston Center
08:38AM 31.5108 -93.1239 219° Southwest 366 421 35,900  Descending Houston Center
08:39AM 31.4314 -93.1997 219° Southwest 368 423 36,000  Climbing Houston Center
08:41AM 31.3494 -93.2778 219° Southwest 366 421 36,000  Level Houston Center
08:42AM 31.2706 -93.3533 219° Southwest 367 422 36,000 -300 Level Houston Center
08:43AM 31.1967 -93.4250 220° Southwest 363 418 35,500 -900 Descending Houston Center
08:44AM 31.1272 -93.5122 227° Southwest 366 421 34,200 -1,620 Descending Houston Center
08:45AM 31.0581 -93.6011 228° Southwest 370 426 32,200 -2,160 Descending Houston Center
08:46AM 30.9733 -93.7064 227° Southwest 370 426 29,800 -2,160 Descending Houston Center
08:47AM 30.9011 -93.7978 227° Southwest 382 440 27,800 -2,100 Descending Houston Center
08:48AM 30.8261 -93.8914 227° Southwest 395 455 25,500 -2,640 Descending Houston Center
08:49AM 30.7514 -93.9839 227° Southwest 396 456 22,500 -2,940 Descending Houston Center
08:50AM 30.6761 -94.0767 227° Southwest 397 457 19,500 -3,180 Descending Houston Center
08:51AM 30.5958 -94.1761 227° Southwest 380 437 16,100 -3,000 Descending Houston Center
08:52AM 30.5206 -94.2692 227° Southwest 367 422 13,400 -2,520 Descending Houston Center
08:52AM 30.4944 -94.2989 224° Southwest 360 414 12,500 -2,340 Descending Houston Center
08:53AM 30.4536 -94.3517 228° Southwest 355 409 11,000 -1,500 Descending Houston Center
08:53AM 30.4272 -94.3828 225° Southwest 336 387 11,000 -540 Level Houston Center
08:54AM 30.3931 -94.4258 227° Southwest 322 371 10,500 -720 Descending Houston Center
08:54AM 30.3717 -94.4606 234° Southwest 283 326 10,300 -900 Descending Houston Center
08:55AM 30.3506 -94.4975 236° Southwest 289 333 9,600 -1,020 Descending Houston Center
08:55AM 30.3283 -94.5339 235° Southwest 285 328 9,300 -1,020 Descending Houston Center
08:56AM 30.3067 -94.5733 238° Southwest 285 328 8,600 -1,140 Descending Houston Center
08:56AM 30.2858 -94.6144 240° Southwest 279 321 8,200 -1,200 Descending Houston Center
08:57AM 30.2600 -94.6625 238° Southwest 269 310 7,400 -1,140 Descending Houston Center
08:57AM 30.2481 -94.6797 231° Southwest 241 277 7,100 -1,020 Descending Houston Center
08:58AM 30.2261 -94.7267 242° Southwest 238 274 6,400 -1,020 Descending Houston Center
08:58AM 30.2125 -94.7472 233° Southwest 225 259 6,100 -1,020 Descending Houston Center
08:59AM 30.1928 -94.7856 239° Southwest 223 257 5,400 -1,020 Descending Houston Center
09:00AM 30.1592 -94.8511 239° Southwest 235 270 4,400 -960 Descending Houston Center
09:00AM 30.1469 -94.8764 241° Southwest 240 276 4,200 -540 Descending Houston Center
09:01AM 30.1278 -94.9153 240° Southwest 230 265 3,900 -480 Descending Houston Center
09:01AM 30.1100 -94.9511 240° Southwest 230 265 3,700 -780 Descending Houston Center
09:02AM 30.0953 -94.9797 239° Southwest 232 267 3,100 -780 Descending Houston Center
09:02AM 30.0775 -95.0061 232° Southwest 226 260 3,000 -240 Descending Houston Center
09:03AM 30.0542 -95.0489 238° Southwest 220 253 2,900  Descending Houston Center
09:03AM 30.0453 -95.0656 238° Southwest 217 250 3,000  Climbing Houston Center
09:04AM 30.0219 -95.1108 239° Southwest 224 258 2,900 60 Descending Houston Center
09:04AM 30.0131 -95.1275 238° Southwest 225 259 3,100 780 Climbing Houston Center